createdAt,value
2023-01-12T00:03:46.009Z,2.2
2023-01-12T00:06:41.744Z,5.3
2023-01-12T00:11:42.202Z,5.1
2023-01-12T00:16:42.595Z,4.4
2023-01-12T00:21:43.025Z,2.3
2023-01-12T00:26:43.504Z,5.6
2023-01-12T00:31:43.946Z,2.7
2023-01-12T00:36:44.326Z,2.7
2023-01-12T00:41:44.665Z,3.1
2023-01-12T00:46:45.099Z,2.5
2023-01-12T00:51:45.619Z,5.4
2023-01-12T00:56:45.903Z,7.0
2023-01-12T01:01:46.557Z,6.1
2023-01-12T01:06:46.781Z,4.4
2023-01-12T01:11:47.571Z,5.4
2023-01-12T01:16:47.587Z,6.2
2023-01-12T01:21:48.024Z,3.5
2023-01-12T01:26:48.573Z,4.0
2023-01-12T01:31:48.865Z,6.4
2023-01-12T01:36:49.362Z,9.4
2023-01-12T01:41:49.743Z,8.8
2023-01-12T01:46:50.101Z,7.0
2023-01-12T01:51:50.543Z,9.7
2023-01-12T01:56:50.964Z,9.1
2023-01-12T02:01:51.385Z,9.5
2023-01-12T02:06:51.767Z,5.9
2023-01-12T02:11:52.544Z,7.5
2023-01-12T02:16:52.632Z,9.2
2023-01-12T02:21:53.083Z,11.1
2023-01-12T02:26:53.782Z,10.6
2023-01-12T02:31:53.934Z,12.9
2023-01-12T02:36:54.507Z,7.5
2023-01-12T02:41:54.898Z,9.8
2023-01-12T02:46:55.257Z,8.4
2023-01-12T02:51:55.745Z,7.0
2023-01-12T02:56:56.227Z,6.5
2023-01-12T03:01:56.621Z,6.2
2023-01-12T03:06:56.950Z,11.8
2023-01-12T03:11:57.820Z,9.4
2023-01-12T03:16:57.852Z,8.9
2023-01-12T03:21:58.417Z,6.5
2023-01-12T03:26:58.845Z,6.0
2023-01-12T03:31:59.223Z,7.1
2023-01-12T03:36:59.683Z,6.0
2023-01-12T03:42:00.180Z,8.6
2023-01-12T03:47:00.617Z,8.6
2023-01-12T03:52:00.960Z,9.2
2023-01-12T03:57:01.533Z,5.4
2023-01-12T04:02:01.841Z,6.0
2023-01-12T04:07:02.311Z,5.2
2023-01-12T04:12:02.929Z,6.5
2023-01-12T04:17:03.038Z,6.8
2023-01-12T04:22:03.664Z,4.7
2023-01-12T04:27:04.111Z,5.8
2023-01-12T04:32:04.519Z,8.6
2023-01-12T04:37:04.937Z,9.3
2023-01-12T04:42:05.531Z,6.6
2023-01-12T04:47:05.825Z,4.2
2023-01-12T04:52:06.376Z,6.9
2023-01-12T04:57:06.790Z,9.3
2023-01-12T05:02:07.267Z,4.1
2023-01-12T05:07:07.651Z,7.5
2023-01-12T05:12:08.482Z,4.1
2023-01-12T05:17:08.647Z,5.0
2023-01-12T05:22:09.089Z,7.0
2023-01-12T05:27:09.698Z,5.4
2023-01-12T05:32:09.979Z,3.8
2023-01-12T05:37:10.472Z,4.3
2023-01-12T05:42:11.055Z,4.2
2023-01-12T05:47:11.442Z,6.4
2023-01-12T05:52:11.800Z,2.7
2023-01-12T05:57:12.427Z,5.8
2023-01-12T06:02:12.682Z,4.3
2023-01-12T06:07:13.202Z,3.7
2023-01-12T06:12:13.932Z,4.7
2023-01-12T06:17:13.890Z,4.8
2023-01-12T06:22:14.473Z,3.7
2023-01-12T06:27:14.986Z,4.2
2023-01-12T06:32:15.266Z,3.3
2023-01-12T06:37:15.632Z,2.9
2023-01-12T06:42:16.164Z,3.0
2023-01-12T06:47:16.617Z,2.7
2023-01-12T06:52:17.021Z,5.2
2023-01-12T06:57:17.650Z,2.0
2023-01-12T07:02:18.044Z,3.5
2023-01-12T07:07:18.496Z,2.6
2023-01-12T07:12:19.182Z,5.0
2023-01-12T07:17:19.385Z,3.0
2023-01-12T07:22:19.721Z,5.6
2023-01-12T07:27:20.304Z,3.1
2023-01-12T07:32:20.642Z,5.4
2023-01-12T07:37:21.091Z,3.5
2023-01-12T07:42:21.634Z,2.0
2023-01-12T07:47:22.011Z,2.7
2023-01-12T07:52:22.390Z,4.5
2023-01-12T07:57:22.809Z,2.3
2023-01-12T08:02:23.134Z,2.2
2023-01-12T08:07:23.572Z,3.5
2023-01-12T08:12:24.549Z,2.4
2023-01-12T08:17:24.305Z,1.9
2023-01-12T08:22:24.822Z,4.5
2023-01-12T08:27:25.103Z,1.4
2023-01-12T08:32:25.441Z,5.1
2023-01-12T08:37:25.704Z,2.0
2023-01-12T08:42:26.477Z,3.6
2023-01-12T08:47:26.534Z,1.5
2023-01-12T08:52:26.793Z,5.4
2023-01-12T08:57:27.291Z,3.2
2023-01-12T09:02:27.691Z,2.7
2023-01-12T09:07:27.980Z,1.5
2023-01-12T09:12:28.655Z,1.5
2023-01-12T09:17:28.674Z,5.7
2023-01-12T09:22:29.008Z,1.6
2023-01-12T09:27:29.547Z,1.3
2023-01-12T09:32:36.874Z,0.7
2023-01-12T09:37:30.102Z,1.6
2023-01-12T09:42:30.564Z,1.0
2023-01-12T09:47:30.763Z,1.6
2023-01-12T09:52:31.152Z,1.0
2023-01-12T09:57:31.710Z,1.5
2023-01-12T10:02:33.193Z,1.1
2023-01-12T10:07:32.356Z,1.0
2023-01-12T10:12:33.183Z,1.5
2023-01-12T10:17:41.902Z,0.9
2023-01-12T10:22:33.376Z,0.9
2023-01-12T10:27:33.835Z,2.8
2023-01-12T10:32:41.530Z,0.8
2023-01-12T10:37:34.629Z,0.9
2023-01-12T10:42:34.993Z,1.0
2023-01-12T10:47:35.432Z,1.9
2023-01-12T10:52:35.713Z,0.8
2023-01-12T10:57:36.185Z,1.4
2023-01-12T11:02:36.575Z,2.1
2023-01-12T11:07:36.864Z,2.8
2023-01-12T11:12:37.876Z,2.6
2023-01-12T11:17:37.595Z,0.7
2023-01-12T11:22:38.007Z,1.8
2023-01-12T11:27:38.551Z,2.6
2023-01-12T11:32:38.744Z,1.5
2023-01-12T11:37:39.117Z,1.7
2023-01-12T11:42:39.607Z,4.7
2023-01-12T11:47:41.815Z,1.3
2023-01-12T11:52:40.150Z,1.0
2023-01-12T11:57:40.619Z,0.8
2023-01-12T12:02:40.980Z,1.3
2023-01-12T12:07:41.364Z,2.0
2023-01-12T12:12:42.266Z,3.2
2023-01-12T12:17:42.019Z,2.6
2023-01-12T12:22:42.468Z,0.7
2023-01-12T12:27:42.803Z,1.6
2023-01-12T12:32:43.355Z,0.8
2023-01-12T12:37:43.592Z,0.7
2023-01-12T12:42:44.109Z,0.5
2023-01-12T12:47:44.381Z,1.0
2023-01-12T12:52:44.755Z,3.1
2023-01-12T12:57:45.205Z,1.2
2023-01-12T13:02:45.476Z,0.8
2023-01-12T13:07:45.946Z,1.7
2023-01-12T13:12:46.855Z,1.2
2023-01-12T13:17:46.633Z,1.9
2023-01-12T13:22:46.994Z,0.7
2023-01-12T13:27:47.533Z,0.9
2023-01-12T13:32:47.761Z,0.9
2023-01-12T13:37:48.152Z,1.2
2023-01-12T13:42:48.687Z,2.2
2023-01-12T13:47:48.956Z,1.6
2023-01-12T13:52:49.405Z,1.5
2023-01-12T13:57:49.772Z,0.8
2023-01-12T14:02:50.223Z,1.0
2023-01-12T14:07:50.590Z,0.7
2023-01-12T14:12:51.464Z,1.3
2023-01-12T14:17:51.227Z,0.8
2023-01-12T14:22:51.676Z,1.1
2023-01-12T14:27:51.934Z,2.1
2023-01-12T14:32:52.399Z,0.8
2023-01-12T14:37:52.714Z,1.7
2023-01-12T14:42:53.169Z,0.7
2023-01-12T14:47:53.561Z,0.9
2023-01-12T14:52:53.851Z,0.8
2023-01-12T14:57:54.457Z,1.8
2023-01-12T15:02:54.663Z,3.2
2023-01-12T15:07:55.034Z,2.1
2023-01-12T15:12:56.047Z,1.1
2023-01-12T15:17:55.825Z,0.6
2023-01-12T15:22:56.218Z,1.7
2023-01-12T15:27:56.697Z,1.0
2023-01-12T15:32:56.967Z,0.9
2023-01-12T15:37:57.346Z,1.5
2023-01-12T15:42:57.855Z,1.1
2023-01-12T15:47:58.112Z,0.9
2023-01-12T15:52:58.670Z,1.1
2023-01-12T15:57:58.985Z,1.5
2023-01-12T16:02:59.419Z,0.9
2023-01-12T16:07:59.724Z,0.6
2023-01-12T16:13:00.724Z,0.6
2023-01-12T16:18:00.468Z,0.8
2023-01-12T16:23:00.839Z,0.9
2023-01-12T16:28:01.217Z,0.6
2023-01-12T16:33:01.609Z,0.8
2023-01-12T16:38:01.958Z,0.7
2023-01-12T16:43:02.580Z,0.6
2023-01-12T16:48:02.773Z,0.8
2023-01-12T16:53:03.124Z,0.7
2023-01-12T16:58:03.615Z,0.6
2023-01-12T17:03:03.846Z,0.6
2023-01-12T17:08:04.335Z,0.6
2023-01-12T17:13:05.236Z,1.0
2023-01-12T17:18:05.004Z,0.6
2023-01-12T17:23:05.514Z,0.5
2023-01-12T17:28:05.762Z,0.6
2023-01-12T17:33:06.058Z,0.6
2023-01-12T17:38:06.526Z,0.8
2023-01-12T17:43:08.236Z,0.6
2023-01-12T17:48:07.149Z,0.6
2023-01-12T17:53:07.570Z,0.5
2023-01-12T17:58:08.050Z,0.6
2023-01-12T18:03:08.418Z,0.6
2023-01-12T18:08:08.710Z,0.5
2023-01-12T18:13:09.680Z,0.6
2023-01-12T18:18:09.456Z,0.8
2023-01-12T18:23:09.874Z,1.0
2023-01-12T18:28:10.219Z,1.2
2023-01-12T18:33:10.628Z,0.7
2023-01-12T18:38:10.954Z,0.6
2023-01-12T18:43:11.505Z,0.9
2023-01-12T18:48:11.703Z,0.7
2023-01-12T18:53:12.150Z,0.6
2023-01-12T18:58:12.634Z,0.7
2023-01-12T19:03:13.004Z,0.6
2023-01-12T19:08:13.406Z,0.8
2023-01-12T19:13:14.296Z,0.7
2023-01-12T19:18:14.034Z,0.7
2023-01-12T19:23:14.495Z,1.2
2023-01-12T19:28:14.858Z,1.5
2023-01-12T19:33:15.265Z,0.8
2023-01-12T19:38:15.645Z,0.8
2023-01-12T19:43:16.036Z,1.0
2023-01-12T19:48:16.370Z,0.9
2023-01-12T19:53:16.702Z,0.6
2023-01-12T19:58:17.045Z,0.6
2023-01-12T20:03:17.449Z,0.6
2023-01-12T20:08:17.720Z,0.9
2023-01-12T20:13:18.614Z,0.6
2023-01-12T20:18:18.422Z,0.6
2023-01-12T20:23:18.808Z,1.6
2023-01-12T20:28:19.155Z,1.0
2023-01-12T20:33:19.598Z,0.6
2023-01-12T20:38:19.855Z,0.6
2023-01-12T20:43:20.190Z,0.9
2023-01-12T20:48:20.549Z,0.6
2023-01-12T20:53:20.910Z,1.0
2023-01-12T20:58:21.501Z,0.6
2023-01-12T21:03:21.741Z,0.9
2023-01-12T21:08:22.022Z,0.8
2023-01-12T21:13:22.962Z,1.8
2023-01-12T21:18:22.781Z,1.2
2023-01-12T21:23:23.153Z,1.3
2023-01-12T21:28:23.690Z,0.8
2023-01-12T21:33:23.912Z,1.0
2023-01-12T21:38:24.358Z,1.3
2023-01-12T21:43:24.808Z,0.8
2023-01-12T21:48:25.099Z,0.8
2023-01-12T21:53:25.571Z,0.6
2023-01-12T21:58:25.886Z,0.9
2023-01-12T22:03:26.333Z,0.9
2023-01-12T22:08:26.563Z,0.6
2023-01-12T22:13:27.625Z,0.8
2023-01-12T22:18:27.332Z,0.7
2023-01-12T22:23:27.753Z,0.6
2023-01-12T22:28:28.133Z,0.6
2023-01-12T22:33:28.589Z,0.6
2023-01-12T22:38:28.905Z,0.6
2023-01-12T22:43:29.409Z,0.7
2023-01-12T22:48:29.639Z,0.7
2023-01-12T22:53:29.986Z,0.7
2023-01-12T22:58:30.566Z,0.5
2023-01-12T23:03:30.806Z,1.0
2023-01-12T23:08:31.102Z,0.6
2023-01-12T23:13:32.173Z,0.6
2023-01-12T23:18:31.875Z,0.6
2023-01-12T23:23:32.279Z,0.6
2023-01-12T23:28:32.556Z,0.7
2023-01-12T23:33:32.909Z,0.6
2023-01-12T23:38:33.430Z,0.6
2023-01-12T23:43:33.802Z,0.7
2023-01-12T23:48:34.092Z,0.6
2023-01-12T23:53:34.492Z,0.7
2023-01-12T23:58:34.927Z,1.5
